sensor_id;sensor_type;location;lat;lon;timestamp;pressure;altitude;pressure_sealevel;temperature;humidity
78123;BME280;67376;44.802;10.332;2023-05-18T00:00:22;101128.13;;;19.20;57.86
78123;BME280;67376;44.802;10.332;2023-05-18T00:02:47;101131.44;;;19.22;57.93
78123;BME280;67376;44.802;10.332;2023-05-18T00:05:14;101130.59;;;19.21;58.55
78123;BME280;67376;44.802;10.332;2023-05-18T00:07:42;101133.31;;;19.21;57.54
78123;BME280;67376;44.802;10.332;2023-05-18T00:10:08;101131.44;;;19.22;58.47
78123;BME280;67376;44.802;10.332;2023-05-18T00:12:33;101137.06;;;19.20;58.45
78123;BME280;67376;44.802;10.332;2023-05-18T00:14:59;101143.31;;;19.21;58.31
78123;BME280;67376;44.802;10.332;2023-05-18T00:17:24;101131.88;;;19.19;58.24
78123;BME280;67376;44.802;10.332;2023-05-18T00:19:50;101132.69;;;19.19;58.26
78123;BME280;67376;44.802;10.332;2023-05-18T00:22:15;101136.22;;;19.20;58.26
78123;BME280;67376;44.802;10.332;2023-05-18T00:24:45;101142.47;;;19.20;58.36
78123;BME280;67376;44.802;10.332;2023-05-18T00:27:11;101137.06;;;19.20;57.76
78123;BME280;67376;44.802;10.332;2023-05-18T00:29:37;101141.88;;;19.18;58.21
78123;BME280;67376;44.802;10.332;2023-05-18T00:32:02;101148.72;;;19.21;58.11
78123;BME280;67376;44.802;10.332;2023-05-18T00:34:27;101148.94;;;19.19;58.10
78123;BME280;67376;44.802;10.332;2023-05-18T00:36:53;101149.75;;;19.20;57.93
78123;BME280;67376;44.802;10.332;2023-05-18T00:39:18;101157.06;;;19.19;58.30
78123;BME280;67376;44.802;10.332;2023-05-18T00:41:44;101145.84;;;19.16;58.06
78123;BME280;67376;44.802;10.332;2023-05-18T00:44:09;101158.72;;;19.20;58.26
78123;BME280;67376;44.802;10.332;2023-05-18T00:46:35;101158.94;;;19.19;58.45
78123;BME280;67376;44.802;10.332;2023-05-18T00:49:01;101157.88;;;19.20;58.51
78123;BME280;67376;44.802;10.332;2023-05-18T00:51:27;101152.69;;;19.18;58.02
78123;BME280;67376;44.802;10.332;2023-05-18T00:53:54;101151.84;;;19.18;57.68
78123;BME280;67376;44.802;10.332;2023-05-18T00:56:20;101150.81;;;19.19;57.76
78123;BME280;67376;44.802;10.332;2023-05-18T00:58:49;101152.69;;;19.18;58.08
78123;BME280;67376;44.802;10.332;2023-05-18T01:01:17;101155.41;;;19.18;58.07
78123;BME280;67376;44.802;10.332;2023-05-18T01:03:43;101164.34;;;19.19;58.50
78123;BME280;67376;44.802;10.332;2023-05-18T01:06:08;101158.09;;;19.18;58.36
78123;BME280;67376;44.802;10.332;2023-05-18T01:08:35;101155.41;;;19.18;57.54
78123;BME280;67376;44.802;10.332;2023-05-18T01:11:24;101159.75;;;19.19;57.61
78123;BME280;67376;44.802;10.332;2023-05-18T01:14:05;101153.53;;;19.19;58.00
78123;BME280;67376;44.802;10.332;2023-05-18T01:16:40;101159.16;;;19.17;57.54
78123;BME280;67376;44.802;10.332;2023-05-18T01:24:15;101143.13;;;19.16;58.55
78123;BME280;67376;44.802;10.332;2023-05-18T01:26:48;101139.59;;;19.15;57.80
78123;BME280;67376;44.802;10.332;2023-05-18T01:29:16;101139.81;;;19.13;57.82
78123;BME280;67376;44.802;10.332;2023-05-18T01:31:42;101145.84;;;19.16;58.24
78123;BME280;67376;44.802;10.332;2023-05-18T01:34:08;101138.75;;;19.14;58.35
78123;BME280;67376;44.802;10.332;2023-05-18T01:36:33;101141.47;;;19.14;58.00
78123;BME280;67376;44.802;10.332;2023-05-18T01:38:59;101142.28;;;19.15;57.95
78123;BME280;67376;44.802;10.332;2023-05-18T01:41:29;101141.47;;;19.14;58.04
78123;BME280;67376;44.802;10.332;2023-05-18T01:44:05;101137.94;;;19.14;57.74
78123;BME280;67376;44.802;10.332;2023-05-18T01:51:46;101140.63;;;19.14;57.77
78123;BME280;67376;44.802;10.332;2023-05-18T01:54:15;101134.41;;;19.13;58.13
78123;BME280;67376;44.802;10.332;2023-05-18T01:56:43;101133.56;;;19.13;58.04
78123;BME280;67376;44.802;10.332;2023-05-18T01:59:09;101136.28;;;19.13;57.16
78123;BME280;67376;44.802;10.332;2023-05-18T02:01:35;101131.91;;;19.12;57.91
78123;BME280;67376;44.802;10.332;2023-05-18T02:04:01;101134.59;;;19.12;57.56
78123;BME280;67376;44.802;10.332;2023-05-18T02:06:26;101138.97;;;19.13;57.66
78123;BME280;67376;44.802;10.332;2023-05-18T02:08:52;101137.31;;;19.12;57.16
78123;BME280;67376;44.802;10.332;2023-05-18T02:11:17;101140.03;;;19.12;57.86
78123;BME280;67376;44.802;10.332;2023-05-18T02:13:43;101141.91;;;19.11;57.59
78123;BME280;67376;44.802;10.332;2023-05-18T02:16:08;101142.94;;;19.10;57.80
78123;BME280;67376;44.802;10.332;2023-05-18T02:18:34;101140.84;;;19.12;57.08
78123;BME280;67376;44.802;10.332;2023-05-18T02:21:00;101141.06;;;19.11;57.12
78123;BME280;67376;44.802;10.332;2023-05-18T02:23:26;101137.53;;;19.10;57.40
78123;BME280;67376;44.802;10.332;2023-05-18T02:25:52;101142.94;;;19.10;56.85
78123;BME280;67376;44.802;10.332;2023-05-18T02:28:21;101138.38;;;19.11;57.41
78123;BME280;67376;44.802;10.332;2023-05-18T02:30:46;101142.94;;;19.10;57.04
78123;BME280;67376;44.802;10.332;2023-05-18T02:33:12;101137.53;;;19.10;57.60
78123;BME280;67376;44.802;10.332;2023-05-18T02:35:37;101129.63;;;19.09;57.14
78123;BME280;67376;44.802;10.332;2023-05-18T02:38:02;101127.75;;;19.09;57.47
78123;BME280;67376;44.802;10.332;2023-05-18T02:40:28;101133.16;;;19.09;57.65
78123;BME280;67376;44.802;10.332;2023-05-18T02:42:53;101125.88;;;19.10;57.23
78123;BME280;67376;44.802;10.332;2023-05-18T02:45:19;101133.16;;;19.09;57.74
78123;BME280;67376;44.802;10.332;2023-05-18T02:47:45;101127.16;;;19.07;57.47
78123;BME280;67376;44.802;10.332;2023-05-18T02:50:11;101126.94;;;19.09;57.53
78123;BME280;67376;44.802;10.332;2023-05-18T02:52:36;101120.69;;;19.08;57.01
78123;BME280;67376;44.802;10.332;2023-05-18T02:55:03;101122.34;;;19.09;57.23
78123;BME280;67376;44.802;10.332;2023-05-18T02:57:28;101125.88;;;19.10;56.80
78123;BME280;67376;44.802;10.332;2023-05-18T02:59:54;101131.28;;;19.10;57.43
78123;BME280;67376;44.802;10.332;2023-05-18T03:02:19;101123.38;;;19.08;56.61
78123;BME280;67376;44.802;10.332;2023-05-18T03:04:47;101126.31;;;19.07;56.99
78123;BME280;67376;44.802;10.332;2023-05-18T03:07:18;101118.19;;;19.07;57.13
78123;BME280;67376;44.802;10.332;2023-05-18T03:09:44;101119.84;;;19.08;57.56
78123;BME280;67376;44.802;10.332;2023-05-18T03:12:10;101113.84;;;19.06;56.79
78123;BME280;67376;44.802;10.332;2023-05-18T03:14:35;101116.56;;;19.06;56.86
78123;BME280;67376;44.802;10.332;2023-05-18T03:17:01;101113.63;;;19.07;57.78
78123;BME280;67376;44.802;10.332;2023-05-18T03:19:32;101120.91;;;19.07;57.65
78123;BME280;67376;44.802;10.332;2023-05-18T03:21:59;101113.03;;;19.05;56.81
78123;BME280;67376;44.802;10.332;2023-05-18T03:24:24;101118.19;;;19.07;56.44
78123;BME280;67376;44.802;10.332;2023-05-18T03:26:51;101116.56;;;19.06;57.17
78123;BME280;67376;44.802;10.332;2023-05-18T03:29:19;101118.19;;;19.07;57.35
78123;BME280;67376;44.802;10.332;2023-05-18T03:31:44;101128.19;;;19.06;57.56
78123;BME280;67376;44.802;10.332;2023-05-18T03:34:10;101132.56;;;19.07;56.86
78123;BME280;67376;44.802;10.332;2023-05-18T03:36:35;101133.59;;;19.06;56.66
78123;BME280;67376;44.802;10.332;2023-05-18T03:39:03;101138.22;;;19.06;57.31
78123;BME280;67376;44.802;10.332;2023-05-18T03:41:30;101144.44;;;19.06;57.13
78123;BME280;67376;44.802;10.332;2023-05-18T03:43:56;101140.09;;;19.05;57.49
78123;BME280;67376;44.802;10.332;2023-05-18T03:46:21;101144.69;;;19.05;57.28
78123;BME280;67376;44.802;10.332;2023-05-18T03:48:47;101152.78;;;19.05;57.07
78123;BME280;67376;44.802;10.332;2023-05-18T03:51:12;101157.16;;;19.06;57.29
78123;BME280;67376;44.802;10.332;2023-05-18T03:53:37;101153.84;;;19.04;56.51
78123;BME280;67376;44.802;10.332;2023-05-18T03:56:03;101157.38;;;19.04;57.39
78123;BME280;67376;44.802;10.332;2023-05-18T03:58:29;101156.34;;;19.05;56.46
78123;BME280;67376;44.802;10.332;2023-05-18T04:00:54;101153.84;;;19.04;57.02
78123;BME280;67376;44.802;10.332;2023-05-18T04:03:20;101165.50;;;19.04;57.25
78123;BME280;67376;44.802;10.332;2023-05-18T04:05:48;101170.91;;;19.04;56.77
78123;BME280;67376;44.802;10.332;2023-05-18T04:08:14;101178.19;;;19.04;56.56
78123;BME280;67376;44.802;10.332;2023-05-18T04:10:43;101176.53;;;19.03;56.76
78123;BME280;67376;44.802;10.332;2023-05-18T04:13:08;101182.78;;;19.03;57.05
78123;BME280;67376;44.802;10.332;2023-05-18T04:15:34;101175.72;;;19.02;56.85
78123;BME280;67376;44.802;10.332;2023-05-18T04:18:00;101179.25;;;19.03;56.47
78123;BME280;67376;44.802;10.332;2023-05-18T04:20:27;101176.53;;;19.03;57.02
78123;BME280;67376;44.802;10.332;2023-05-18T04:22:52;101181.13;;;19.02;57.01
78123;BME280;67376;44.802;10.332;2023-05-18T04:25:18;101188.19;;;19.03;57.36
78123;BME280;67376;44.802;10.332;2023-05-18T04:27:44;101190.91;;;19.03;56.17
78123;BME280;67376;44.802;10.332;2023-05-18T04:30:11;101188.19;;;19.03;56.63
78123;BME280;67376;44.802;10.332;2023-05-18T04:32:37;101187.34;;;19.03;56.39
78123;BME280;67376;44.802;10.332;2023-05-18T04:35:05;101182.78;;;19.03;57.08
78123;BME280;67376;44.802;10.332;2023-05-18T04:37:31;101193.59;;;19.03;57.23
78123;BME280;67376;44.802;10.332;2023-05-18T04:39:57;101190.06;;;19.03;56.97
78123;BME280;67376;44.802;10.332;2023-05-18T04:42:26;101188.19;;;19.03;56.19
78123;BME280;67376;44.802;10.332;2023-05-18T04:44:51;101188.19;;;19.03;57.30
78123;BME280;67376;44.802;10.332;2023-05-18T04:47:18;101191.94;;;19.02;56.32
78123;BME280;67376;44.802;10.332;2023-05-18T04:49:46;101208.19;;;19.02;56.51
78123;BME280;67376;44.802;10.332;2023-05-18T04:52:13;101197.56;;;19.01;56.83
78123;BME280;67376;44.802;10.332;2023-05-18T04:54:39;101202.75;;;19.02;56.76
78123;BME280;67376;44.802;10.332;2023-05-18T04:57:05;101202.75;;;19.02;56.29
78123;BME280;67376;44.802;10.332;2023-05-18T04:59:31;101194.66;;;19.02;56.13
78123;BME280;67376;44.802;10.332;2023-05-18T05:02:01;101205.47;;;19.02;56.37
78123;BME280;67376;44.802;10.332;2023-05-18T05:04:28;101208.19;;;19.02;56.49
78123;BME280;67376;44.802;10.332;2023-05-18T05:06:53;101214.41;;;19.03;56.35
78123;BME280;67376;44.802;10.332;2023-05-18T05:09:18;101210.06;;;19.02;56.27
78123;BME280;67376;44.802;10.332;2023-05-18T05:11:44;101208.19;;;19.02;56.95
78123;BME280;67376;44.802;10.332;2023-05-18T05:14:10;101213.59;;;19.02;57.04
78123;BME280;67376;44.802;10.332;2023-05-18T05:16:35;101210.88;;;19.02;56.61
78123;BME280;67376;44.802;10.332;2023-05-18T05:19:01;101213.59;;;19.02;56.85
78123;BME280;67376;44.802;10.332;2023-05-18T05:21:27;101216.28;;;19.02;56.21
78123;BME280;67376;44.802;10.332;2023-05-18T05:23:53;101215.69;;;19.00;56.10
78123;BME280;67376;44.802;10.332;2023-05-18T05:26:19;101219.22;;;19.01;56.12
78123;BME280;67376;44.802;10.332;2023-05-18T05:28:45;101213.81;;;19.01;56.40
78123;BME280;67376;44.802;10.332;2023-05-18T05:31:11;101210.28;;;19.00;56.75
78123;BME280;67376;44.802;10.332;2023-05-18T05:33:37;101208.41;;;19.01;56.40
78123;BME280;67376;44.802;10.332;2023-05-18T05:36:02;101210.06;;;19.02;56.80
78123;BME280;67376;44.802;10.332;2023-05-18T05:38:30;101211.09;;;19.01;55.82
78123;BME280;67376;44.802;10.332;2023-05-18T05:40:55;101207.56;;;19.00;56.22
78123;BME280;67376;44.802;10.332;2023-05-18T05:43:21;101218.16;;;19.02;55.62
78123;BME280;67376;44.802;10.332;2023-05-18T05:45:46;101211.09;;;19.01;55.87
78123;BME280;67376;44.802;10.332;2023-05-18T05:48:12;101210.28;;;19.00;56.02
78123;BME280;67376;44.802;10.332;2023-05-18T05:50:37;101219.22;;;19.01;56.81
78123;BME280;67376;44.802;10.332;2023-05-18T05:53:02;101223.81;;;19.00;55.99
78123;BME280;67376;44.802;10.332;2023-05-18T05:55:28;101223.59;;;19.02;56.69
78123;BME280;67376;44.802;10.332;2023-05-18T05:57:53;101221.94;;;19.01;56.64
78123;BME280;67376;44.802;10.332;2023-05-18T06:00:19;101223.81;;;19.00;56.67
78123;BME280;67376;44.802;10.332;2023-05-18T06:02:45;101239.00;;;19.01;55.98
78123;BME280;67376;44.802;10.332;2023-05-18T06:05:11;101231.91;;;19.00;55.69
78123;BME280;67376;44.802;10.332;2023-05-18T06:07:36;101246.28;;;19.01;55.59
78123;BME280;67376;44.802;10.332;2023-05-18T06:10:02;101240.88;;;19.01;56.10
78123;BME280;67376;44.802;10.332;2023-05-18T06:12:27;101247.09;;;19.01;56.83
78123;BME280;67376;44.802;10.332;2023-05-18T06:14:54;101246.28;;;19.01;56.63
78123;BME280;67376;44.802;10.332;2023-05-18T06:17:25;101246.50;;;18.99;56.33
78123;BME280;67376;44.802;10.332;2023-05-18T06:19:51;101248.16;;;19.00;56.25
78123;BME280;67376;44.802;10.332;2023-05-18T06:22:16;101247.09;;;19.01;55.81
78123;BME280;67376;44.802;10.332;2023-05-18T06:24:42;101255.22;;;19.01;55.77
78123;BME280;67376;44.802;10.332;2023-05-18T06:27:07;101255.22;;;19.01;55.75
78123;BME280;67376;44.802;10.332;2023-05-18T06:29:32;101245.22;;;19.02;56.58
78123;BME280;67376;44.802;10.332;2023-05-18T06:31:58;101242.53;;;19.02;56.02
78123;BME280;67376;44.802;10.332;2023-05-18T06:34:23;101241.47;;;19.03;56.49
78123;BME280;67376;44.802;10.332;2023-05-18T06:36:48;101233.59;;;19.01;56.50
78123;BME280;67376;44.802;10.332;2023-05-18T06:39:14;101237.13;;;19.02;55.88
78123;BME280;67376;44.802;10.332;2023-05-18T06:41:39;101235.25;;;19.02;56.11
78123;BME280;67376;44.802;10.332;2023-05-18T06:44:05;101231.50;;;19.03;55.93
78123;BME280;67376;44.802;10.332;2023-05-18T06:46:30;101227.34;;;19.01;55.85
78123;BME280;67376;44.802;10.332;2023-05-18T06:48:56;101221.72;;;19.02;55.88
78123;BME280;67376;44.802;10.332;2023-05-18T06:51:21;101226.91;;;19.04;55.65
78123;BME280;67376;44.802;10.332;2023-05-18T06:53:47;101227.75;;;19.04;55.62
78123;BME280;67376;44.802;10.332;2023-05-18T06:56:12;101221.09;;;19.00;55.88
78123;BME280;67376;44.802;10.332;2023-05-18T06:58:38;101235.84;;;19.04;56.41
78123;BME280;67376;44.802;10.332;2023-05-18T07:01:04;101237.72;;;19.04;55.46
78123;BME280;67376;44.802;10.332;2023-05-18T07:03:29;101238.34;;;19.06;55.63
78123;BME280;67376;44.802;10.332;2023-05-18T07:05:57;101239.97;;;19.07;56.37
78123;BME280;67376;44.802;10.332;2023-05-18T07:08:22;101242.69;;;19.07;55.69
78123;BME280;67376;44.802;10.332;2023-05-18T07:10:50;101248.09;;;19.07;55.67
78123;BME280;67376;44.802;10.332;2023-05-18T07:13:16;101248.94;;;19.07;55.51
78123;BME280;67376;44.802;10.332;2023-05-18T07:15:41;101253.28;;;19.08;56.14
78123;BME280;67376;44.802;10.332;2023-05-18T07:18:07;101244.34;;;19.08;56.53
78123;BME280;67376;44.802;10.332;2023-05-18T07:20:32;101243.31;;;19.09;55.78
78123;BME280;67376;44.802;10.332;2023-05-18T07:22:57;101234.13;;;19.10;56.42
78123;BME280;67376;44.802;10.332;2023-05-18T07:25:23;101237.66;;;19.10;56.34
78123;BME280;67376;44.802;10.332;2023-05-18T07:27:49;101241.44;;;19.09;56.39
78123;BME280;67376;44.802;10.332;2023-05-18T07:30:16;101238.72;;;19.09;56.06
78123;BME280;67376;44.802;10.332;2023-05-18T07:32:41;101236.41;;;19.13;55.44
78123;BME280;67376;44.802;10.332;2023-05-18T07:35:09;101237.25;;;19.13;55.84
78123;BME280;67376;44.802;10.332;2023-05-18T07:37:34;101240.78;;;19.14;55.81
78123;BME280;67376;44.802;10.332;2023-05-18T07:40:01;101242.22;;;19.17;55.35
78123;BME280;67376;44.802;10.332;2023-05-18T07:42:26;101242.44;;;19.15;55.23
78123;BME280;67376;44.802;10.332;2023-05-18T07:44:52;101232.03;;;19.12;55.42
78123;BME280;67376;44.802;10.332;2023-05-18T07:47:17;101238.91;;;19.14;55.44
78123;BME280;67376;44.802;10.332;2023-05-18T07:49:45;101244.72;;;19.18;56.17
78123;BME280;67376;44.802;10.332;2023-05-18T07:52:10;101236.19;;;19.14;55.86
78123;BME280;67376;44.802;10.332;2023-05-18T07:54:36;101245.97;;;19.16;55.30
78123;BME280;67376;44.802;10.332;2023-05-18T07:57:01;101248.47;;;19.17;55.22
78123;BME280;67376;44.802;10.332;2023-05-18T07:59:28;101250.97;;;19.19;55.45
78123;BME280;67376;44.802;10.332;2023-05-18T08:01:54;101261.78;;;19.19;55.84
78123;BME280;67376;44.802;10.332;2023-05-18T08:04:19;101249.50;;;19.16;55.73
78123;BME280;67376;44.802;10.332;2023-05-18T08:06:45;101253.06;;;19.17;56.09
78123;BME280;67376;44.802;10.332;2023-05-18T08:09:10;101250.13;;;19.18;55.77
78123;BME280;67376;44.802;10.332;2023-05-18T08:11:36;101261.78;;;19.19;55.87
78123;BME280;67376;44.802;10.332;2023-05-18T08:14:01;101266.38;;;19.18;55.75
78123;BME280;67376;44.802;10.332;2023-05-18T08:16:27;101271.56;;;19.20;55.84
78123;BME280;67376;44.802;10.332;2023-05-18T08:18:52;101267.22;;;19.19;55.54
78123;BME280;67376;44.802;10.332;2023-05-18T08:21:18;101267.22;;;19.19;55.37
78123;BME280;67376;44.802;10.332;2023-05-18T08:23:45;101264.28;;;19.20;56.12
78123;BME280;67376;44.802;10.332;2023-05-18T08:26:11;101265.72;;;19.23;55.45
78123;BME280;67376;44.802;10.332;2023-05-18T08:28:37;101268.44;;;19.23;55.92
78123;BME280;67376;44.802;10.332;2023-05-18T08:31:02;101270.94;;;19.24;55.30
78123;BME280;67376;44.802;10.332;2023-05-18T08:33:28;101269.25;;;19.23;55.65
78123;BME280;67376;44.802;10.332;2023-05-18T08:35:53;101261.75;;;19.25;55.42
78123;BME280;67376;44.802;10.332;2023-05-18T08:38:19;101264.69;;;19.24;55.96
78123;BME280;67376;44.802;10.332;2023-05-18T08:43:37;101261.97;;;19.24;55.81
78123;BME280;67376;44.802;10.332;2023-05-18T08:48:44;101263.00;;;19.29;56.06
78123;BME280;67376;44.802;10.332;2023-05-18T08:51:18;101263.44;;;19.26;55.88
78123;BME280;67376;44.802;10.332;2023-05-18T08:53:44;101267.78;;;19.27;56.10
78123;BME280;67376;44.802;10.332;2023-05-18T08:56:11;101262.78;;;19.31;55.97
78123;BME280;67376;44.802;10.332;2023-05-18T08:58:43;101260.06;;;19.31;55.82
78123;BME280;67376;44.802;10.332;2023-05-18T09:01:12;101255.69;;;19.30;55.99
78123;BME280;67376;44.802;10.332;2023-05-18T09:03:38;101262.56;;;19.32;56.06
78123;BME280;67376;44.802;10.332;2023-05-18T09:06:05;101265.06;;;19.34;55.98
78123;BME280;67376;44.802;10.332;2023-05-18T09:08:31;101265.47;;;19.37;55.92
78123;BME280;67376;44.802;10.332;2023-05-18T09:11:00;101274.22;;;19.33;56.06
78123;BME280;67376;44.802;10.332;2023-05-18T09:13:26;101270.28;;;19.29;55.65
78123;BME280;67376;44.802;10.332;2023-05-18T09:15:52;101269.81;;;19.38;55.13
78123;BME280;67376;44.802;10.332;2023-05-18T09:18:17;101274.81;;;19.41;55.36
78123;BME280;67376;44.802;10.332;2023-05-18T09:20:43;101273.97;;;19.41;55.03
78123;BME280;67376;44.802;10.332;2023-05-18T09:23:11;101288.16;;;19.36;55.53
78123;BME280;67376;44.802;10.332;2023-05-18T09:25:42;101283.56;;;19.37;55.59
78123;BME280;67376;44.802;10.332;2023-05-18T09:28:08;101287.13;;;19.37;55.45
78123;BME280;67376;44.802;10.332;2023-05-18T09:30:39;101280.66;;;19.38;55.11
78123;BME280;67376;44.802;10.332;2023-05-18T09:33:14;101280.66;;;19.38;54.90
78123;BME280;67376;44.802;10.332;2023-05-18T09:35:43;101291.09;;;19.35;55.24
78123;BME280;67376;44.802;10.332;2023-05-18T09:38:11;101286.72;;;19.34;55.68
78123;BME280;67376;44.802;10.332;2023-05-18T09:40:43;101287.13;;;19.37;55.59
78123;BME280;67376;44.802;10.332;2023-05-18T09:43:08;101285.03;;;19.39;54.66
78123;BME280;67376;44.802;10.332;2023-05-18T09:45:41;101285.63;;;19.41;54.98
78123;BME280;67376;44.802;10.332;2023-05-18T09:48:06;101276.69;;;19.41;54.97
78123;BME280;67376;44.802;10.332;2023-05-18T09:50:32;101288.56;;;19.40;55.09
78123;BME280;67376;44.802;10.332;2023-05-18T09:52:59;101283.16;;;19.40;55.12
78123;BME280;67376;44.802;10.332;2023-05-18T09:55:24;101287.72;;;19.39;54.84
78123;BME280;67376;44.802;10.332;2023-05-18T09:57:50;101278.56;;;19.40;55.00
78123;BME280;67376;44.802;10.332;2023-05-18T10:00:17;101288.31;;;19.48;55.42
78123;BME280;67376;44.802;10.332;2023-05-18T10:02:45;101286.03;;;19.52;52.33
78123;BME280;67376;44.802;10.332;2023-05-18T10:05:24;101285.38;;;19.56;53.48
78123;BME280;67376;44.802;10.332;2023-05-18T10:07:56;101285.22;;;19.51;52.91
78123;BME280;67376;44.802;10.332;2023-05-18T10:10:24;101281.63;;;19.51;53.06
78123;BME280;67376;44.802;10.332;2023-05-18T10:12:51;101287.47;;;19.48;53.94
78123;BME280;67376;44.802;10.332;2023-05-18T10:15:19;101290.41;;;19.46;53.63
78123;BME280;67376;44.802;10.332;2023-05-18T10:17:46;101279.19;;;19.42;53.33
78123;BME280;67376;44.802;10.332;2023-05-18T10:20:14;101282.94;;;19.41;53.52
78123;BME280;67376;44.802;10.332;2023-05-18T10:22:45;101276.91;;;19.39;53.93
78123;BME280;67376;44.802;10.332;2023-05-18T10:25:17;101293.16;;;19.39;53.02
78123;BME280;67376;44.802;10.332;2023-05-18T10:27:43;101279.00;;;19.37;53.00
78123;BME280;67376;44.802;10.332;2023-05-18T10:30:09;101285.03;;;19.39;53.46
78123;BME280;67376;44.802;10.332;2023-05-18T10:32:35;101277.94;;;19.38;53.68
78123;BME280;67376;44.802;10.332;2023-05-18T10:35:02;101272.31;;;19.40;53.25
78123;BME280;67376;44.802;10.332;2023-05-18T10:37:30;101280.66;;;19.38;53.83
78123;BME280;67376;44.802;10.332;2023-05-18T10:39:58;101272.53;;;19.38;53.81
78123;BME280;67376;44.802;10.332;2023-05-18T10:42:24;101277.13;;;19.38;53.71
78123;BME280;67376;44.802;10.332;2023-05-18T10:44:52;101277.13;;;19.38;53.56
78123;BME280;67376;44.802;10.332;2023-05-18T10:47:18;101281.50;;;19.39;53.42
78123;BME280;67376;44.802;10.332;2023-05-18T10:49:46;101283.97;;;19.40;53.64
78123;BME280;67376;44.802;10.332;2023-05-18T10:52:12;101286.06;;;19.38;52.61
78123;BME280;67376;44.802;10.332;2023-05-18T10:54:41;101285.25;;;19.38;53.24
78123;BME280;67376;44.802;10.332;2023-05-18T10:57:10;101279.00;;;19.37;52.57
78123;BME280;67376;44.802;10.332;2023-05-18T10:59:39;101273.78;;;19.36;53.34
78123;BME280;67376;44.802;10.332;2023-05-18T11:02:06;101271.28;;;19.41;53.47
78123;BME280;67376;44.802;10.332;2023-05-18T11:04:34;101266.06;;;19.39;52.52
78123;BME280;67376;44.802;10.332;2023-05-18T11:07:00;101268.78;;;19.39;53.50
78123;BME280;67376;44.802;10.332;2023-05-18T11:09:28;101268.16;;;19.37;52.80
78123;BME280;67376;44.802;10.332;2023-05-18T11:11:57;101274.41;;;19.38;52.82
78123;BME280;67376;44.802;10.332;2023-05-18T11:14:32;101275.66;;;19.35;52.74
78123;BME280;67376;44.802;10.332;2023-05-18T11:17:20;101270.25;;;19.35;53.58
78123;BME280;67376;44.802;10.332;2023-05-18T11:27:49;101248.22;;;19.25;53.16
78123;BME280;67376;44.802;10.332;2023-05-18T11:33:10;101246.34;;;19.26;53.95
78123;BME280;67376;44.802;10.332;2023-05-18T11:38:19;101236.78;;;19.23;53.52
78123;BME280;67376;44.802;10.332;2023-05-18T11:40:49;101239.28;;;19.25;53.55
78123;BME280;67376;44.802;10.332;2023-05-18T11:43:22;101245.72;;;19.24;54.08
78123;BME280;67376;44.802;10.332;2023-05-18T11:45:56;101245.72;;;19.24;53.20
78123;BME280;67376;44.802;10.332;2023-05-18T11:48:23;101244.91;;;19.23;53.56
78123;BME280;67376;44.802;10.332;2023-05-18T11:50:52;101246.78;;;19.23;54.11
78123;BME280;67376;44.802;10.332;2023-05-18T11:53:21;101235.94;;;19.23;53.92
78123;BME280;67376;44.802;10.332;2023-05-18T11:55:51;101240.53;;;19.22;53.06
78123;BME280;67376;44.802;10.332;2023-05-18T11:58:18;101232.41;;;19.22;53.31
78123;BME280;67376;44.802;10.332;2023-05-18T12:00:45;101237.81;;;19.22;54.31
78123;BME280;67376;44.802;10.332;2023-05-18T12:03:12;101238.66;;;19.23;53.97
78123;BME280;67376;44.802;10.332;2023-05-18T12:05:38;101232.63;;;19.21;54.01
78123;BME280;67376;44.802;10.332;2023-05-18T12:08:07;101239.72;;;19.22;54.11
78123;BME280;67376;44.802;10.332;2023-05-18T12:10:33;101232.41;;;19.22;53.35
78123;BME280;67376;44.802;10.332;2023-05-18T12:13:01;101235.94;;;19.23;54.18
78123;BME280;67376;44.802;10.332;2023-05-18T12:15:27;101227.00;;;19.22;53.38
78123;BME280;67376;44.802;10.332;2023-05-18T12:17:53;101231.59;;;19.22;53.63
78123;BME280;67376;44.802;10.332;2023-05-18T12:20:22;101231.38;;;19.23;53.51
78123;BME280;67376;44.802;10.332;2023-05-18T12:22:53;101227.00;;;19.22;54.06
78123;BME280;67376;44.802;10.332;2023-05-18T12:25:20;101233.25;;;19.23;54.14
78123;BME280;67376;44.802;10.332;2023-05-18T12:27:46;101229.72;;;19.22;53.70
78123;BME280;67376;44.802;10.332;2023-05-18T12:32:47;101226.16;;;19.22;54.38
78123;BME280;67376;44.802;10.332;2023-05-18T12:35:13;101225.97;;;19.23;54.15
78123;BME280;67376;44.802;10.332;2023-05-18T12:37:42;101218.88;;;19.22;53.59
78123;BME280;67376;44.802;10.332;2023-05-18T12:40:12;101217.22;;;19.21;53.79
78123;BME280;67376;44.802;10.332;2023-05-18T12:42:38;101210.16;;;19.20;54.24
78123;BME280;67376;44.802;10.332;2023-05-18T12:45:04;101217.00;;;19.23;53.52
78123;BME280;67376;44.802;10.332;2023-05-18T12:47:32;101216.19;;;19.22;53.91
78123;BME280;67376;44.802;10.332;2023-05-18T12:50:01;101209.72;;;19.23;53.64
78123;BME280;67376;44.802;10.332;2023-05-18T12:52:27;101207.22;;;19.22;54.48
78123;BME280;67376;44.802;10.332;2023-05-18T12:54:54;101204.50;;;19.22;53.81
78123;BME280;67376;44.802;10.332;2023-05-18T12:57:23;101201.59;;;19.23;54.45
78123;BME280;67376;44.802;10.332;2023-05-18T12:59:52;101200.16;;;19.21;53.67
78123;BME280;67376;44.802;10.332;2023-05-18T13:02:29;101213.47;;;19.22;53.34
78123;BME280;67376;44.802;10.332;2023-05-18T13:05:05;101206.19;;;19.23;53.98
78123;BME280;67376;44.802;10.332;2023-05-18T13:07:34;101203.69;;;19.21;54.01
78123;BME280;67376;44.802;10.332;2023-05-18T13:10:00;101209.94;;;19.22;53.71